首页
METAR-TAF:

METAR-TAF

机场 :

克卢日-纳波卡, 罗马尼亚

纬度: 46-47N, 经度: 023-34E, 海拔: 315米

当前天气观测

该预报发布于37分钟前的12:00 UTC
风速8节,风向南转南东
温度 31°C
湿度 38%
气压 1015 hPa
能见度10公里或以上
1500米以下无云,无积雨云

METAR: LRCL 111200Z 16008KT CAVOK 31/15 Q1015

时间: 15:37 (12:37 UTC)

预报

该预报发布于1小时和37分钟前的11:00 UTC
预报有效从11日的 12点(UTC)到 11日的 21点(UTC)
风速8节,风向东南
能见度10公里或以上
1500米以下无云,无积雨云
短暂存在
从 11日的 12点(UTC)到 11日的 16点(UTC)
少量云层高于5000英尺, 积雨云.

TAF: LRCL 111100Z 1112/1121 13008KT CAVOK TEMPO 1112/1116 FEW050CB

超过4000个机场的气象观测和天气预报(METAR&TAF报告)。

可查询的气象台以黄色和红色小点在地图上表示。

将鼠标移到小点上方,可查看气象台名称。

然后点击查看天气观测和预报。

如需切换地图:点击带黑十字的绿色按钮放大地图;点击带横线的绿色按钮缩小地图;或者点击绿色箭头查看邻近地区的地图。


METAR-TAF: